createdAt,value
2022-09-26T00:00:13.382Z,32.60
2022-09-26T00:02:43.969Z,32.74
2022-09-26T00:05:13.657Z,32.56
2022-09-26T00:07:42.937Z,32.89
2022-09-26T00:10:12.525Z,32.86
2022-09-26T00:12:41.877Z,32.88
2022-09-26T00:15:12.143Z,33.02
2022-09-26T00:17:41.519Z,32.99
2022-09-26T00:20:11.371Z,32.99
2022-09-26T00:22:40.770Z,33.13
2022-09-26T00:25:10.542Z,33.12
2022-09-26T00:27:40.003Z,33.28
2022-09-26T00:30:09.815Z,33.39
2022-09-26T00:32:39.101Z,33.33
2022-09-26T00:35:14.635Z,33.65
2022-09-26T00:37:43.949Z,33.71
2022-09-26T00:40:13.426Z,33.69
2022-09-26T00:42:42.791Z,33.65
2022-09-26T00:45:12.853Z,34.04
2022-09-26T00:48:00.594Z,34.42
2022-09-26T00:50:43.515Z,34.37
2022-09-26T00:53:26.316Z,34.45
2022-09-26T00:56:07.304Z,34.61
2022-09-26T00:58:55.211Z,34.67
2022-09-26T01:01:25.934Z,34.96
2022-09-26T01:03:55.729Z,35.19
2022-09-26T01:06:25.234Z,35.40
2022-09-26T01:09:10.966Z,35.62
2022-09-26T01:11:43.487Z,35.87
2022-09-26T01:14:15.347Z,36.04
2022-09-26T01:16:49.778Z,36.26
2022-09-26T01:19:51.626Z,36.44
2022-09-26T01:22:47.288Z,36.53
2022-09-26T01:25:59.168Z,36.80
2022-09-26T01:28:55.912Z,37.11
2022-09-26T01:32:15.210Z,37.33
2022-09-26T01:35:19.744Z,37.66
2022-09-26T01:38:12.880Z,37.94
2022-09-26T01:41:30.252Z,38.11
2022-09-26T01:44:33.874Z,38.46
2022-09-26T01:47:47.685Z,38.65
2022-09-26T01:50:49.483Z,38.92
2022-09-26T01:53:25.626Z,39.25
2022-09-26T01:56:06.917Z,39.48
2022-09-26T01:59:01.112Z,39.71
2022-09-26T02:01:44.109Z,39.90
2022-09-26T02:04:23.038Z,40.07
2022-09-26T02:07:23.344Z,40.23
2022-09-26T02:10:06.819Z,40.45
2022-09-26T02:12:40.617Z,40.64
2022-09-26T02:15:17.303Z,40.74
2022-09-26T02:18:01.866Z,40.92
2022-09-26T02:20:39.595Z,41.08
2022-09-26T02:23:09.902Z,41.22
2022-09-26T02:25:39.188Z,41.33
2022-09-26T02:28:09.728Z,41.48
2022-09-26T02:30:40.385Z,41.57
2022-09-26T02:33:10.094Z,41.66
2022-09-26T02:35:58.685Z,41.84
2022-09-26T02:38:32.147Z,41.93
2022-09-26T02:41:44.952Z,42.08
2022-09-26T02:44:50.342Z,42.21
2022-09-26T02:47:37.228Z,42.32
2022-09-26T02:50:21.349Z,42.51
2022-09-26T02:53:34.098Z,42.71
2022-09-26T02:56:18.656Z,42.98
2022-09-26T02:58:50.740Z,43.14
2022-09-26T03:01:51.887Z,43.33
2022-09-26T03:05:04.837Z,43.50
2022-09-26T03:07:58.259Z,43.78
2022-09-26T03:10:31.898Z,43.94
2022-09-26T03:13:18.320Z,43.99
2022-09-26T03:15:55.148Z,44.02
2022-09-26T03:18:38.664Z,44.01
2022-09-26T03:21:08.390Z,44.14
2022-09-26T03:23:37.656Z,44.30
2022-09-26T03:26:17.832Z,44.32
2022-09-26T03:28:47.600Z,44.45
2022-09-26T03:31:16.993Z,44.59
2022-09-26T03:33:47.457Z,44.67
2022-09-26T03:36:17.288Z,44.80
2022-09-26T03:38:46.534Z,44.86
2022-09-26T03:41:16.097Z,44.89
2022-09-26T03:43:45.275Z,45.01
2022-09-26T03:46:15.721Z,44.99
2022-09-26T03:48:45.582Z,45.17
2022-09-26T03:51:16.310Z,45.30
2022-09-26T03:53:48.231Z,45.37
2022-09-26T03:56:21.122Z,45.51
2022-09-26T03:58:50.902Z,45.54
2022-09-26T04:01:23.948Z,45.54
2022-09-26T04:03:53.376Z,45.64
2022-09-26T04:06:23.076Z,45.74
2022-09-26T04:08:54.792Z,45.87
2022-09-26T04:11:26.136Z,46.10
2022-09-26T04:13:55.958Z,46.27
2022-09-26T04:16:26.521Z,46.51
2022-09-26T04:18:59.976Z,46.71
2022-09-26T04:21:29.724Z,46.93
2022-09-26T04:23:59.477Z,47.02
2022-09-26T04:26:29.338Z,47.10
2022-09-26T04:29:00.124Z,47.23
2022-09-26T04:31:30.096Z,47.42
2022-09-26T04:33:59.380Z,47.70
2022-09-26T04:36:28.798Z,47.80
2022-09-26T04:39:01.740Z,47.92
2022-09-26T04:41:32.463Z,48.07
2022-09-26T04:44:03.016Z,48.24
2022-09-26T04:46:33.248Z,48.39
2022-09-26T04:49:03.960Z,48.49
2022-09-26T04:51:34.225Z,48.61
2022-09-26T04:54:03.412Z,48.75
2022-09-26T04:56:33.387Z,48.87
2022-09-26T04:59:03.278Z,49.05
2022-09-26T05:01:32.337Z,49.19
2022-09-26T05:04:01.485Z,49.33
2022-09-26T05:06:30.530Z,49.52
2022-09-26T05:08:59.945Z,49.70
2022-09-26T05:11:29.273Z,49.78
2022-09-26T05:13:58.809Z,49.83
2022-09-26T05:16:29.262Z,49.95
2022-09-26T05:18:58.538Z,50.06
2022-09-26T05:21:28.309Z,50.25
2022-09-26T05:24:16.585Z,50.38
2022-09-26T05:26:54.795Z,50.56
2022-09-26T05:29:24.323Z,50.67
2022-09-26T05:31:55.641Z,50.78
2022-09-26T05:34:27.675Z,50.91
2022-09-26T05:36:57.523Z,51.05
2022-09-26T05:39:45.569Z,51.13
2022-09-26T05:42:16.386Z,51.29
2022-09-26T05:44:45.493Z,51.49
2022-09-26T05:47:14.863Z,51.56
2022-09-26T05:49:44.174Z,51.76
2022-09-26T05:52:13.682Z,51.94
2022-09-26T05:54:43.096Z,52.04
2022-09-26T05:57:14.015Z,52.08
2022-09-26T05:59:43.548Z,52.19
2022-09-26T06:02:17.234Z,52.28
2022-09-26T06:04:50.432Z,52.33
2022-09-26T06:07:20.393Z,52.38
2022-09-26T06:09:50.248Z,52.42
2022-09-26T06:12:20.690Z,52.52
2022-09-26T06:14:49.865Z,52.60
2022-09-26T06:17:19.341Z,52.64
2022-09-26T06:19:48.796Z,53.16
2022-09-26T06:22:17.877Z,53.81
2022-09-26T06:24:47.256Z,54.06
2022-09-26T06:27:16.669Z,54.24
2022-09-26T06:29:45.916Z,54.38
2022-09-26T06:32:15.189Z,54.24
2022-09-26T06:34:44.791Z,54.19
2022-09-26T06:37:14.141Z,54.17
2022-09-26T06:39:43.485Z,54.15
2022-09-26T06:42:12.910Z,54.22
2022-09-26T06:44:45.007Z,54.28
2022-09-26T06:47:14.738Z,54.29
2022-09-26T06:49:48.653Z,54.31
2022-09-26T06:52:18.051Z,54.30
2022-09-26T06:54:50.002Z,54.43
2022-09-26T06:57:19.521Z,54.53
2022-09-26T06:59:48.737Z,54.70
2022-09-26T07:02:18.117Z,54.84
2022-09-26T07:04:49.623Z,55.03
2022-09-26T07:07:18.908Z,55.20
2022-09-26T07:09:48.544Z,55.41
2022-09-26T07:12:18.030Z,55.60
2022-09-26T07:14:51.406Z,55.83
2022-09-26T07:17:22.818Z,55.80
2022-09-26T07:19:55.057Z,55.95
2022-09-26T07:22:24.483Z,56.22
2022-09-26T07:24:53.840Z,56.41
2022-09-26T07:27:23.097Z,56.54
2022-09-26T07:29:52.542Z,56.43
2022-09-26T07:32:21.771Z,56.55
2022-09-26T07:34:51.264Z,56.70
2022-09-26T07:37:20.684Z,56.90
2022-09-26T07:39:53.561Z,57.03
2022-09-26T07:42:24.190Z,57.12
2022-09-26T07:45:21.985Z,57.17
2022-09-26T07:48:01.173Z,57.33
2022-09-26T07:50:30.427Z,57.54
2022-09-26T07:52:59.626Z,57.61
2022-09-26T07:55:30.115Z,57.69
2022-09-26T07:58:00.243Z,57.84
2022-09-26T08:00:31.515Z,58.05
2022-09-26T08:03:05.858Z,58.17
2022-09-26T08:05:38.306Z,58.31
2022-09-26T08:08:07.759Z,58.48
2022-09-26T08:10:37.903Z,58.55
2022-09-26T08:13:07.313Z,58.59
2022-09-26T08:15:37.335Z,58.72
2022-09-26T08:18:06.807Z,58.76
2022-09-26T08:20:36.828Z,58.83
2022-09-26T08:23:06.206Z,58.88
2022-09-26T08:25:35.508Z,59.05
2022-09-26T08:28:10.946Z,59.20
2022-09-26T08:30:45.969Z,59.22
2022-09-26T08:33:15.836Z,59.29
2022-09-26T08:35:44.997Z,59.48
2022-09-26T08:38:16.298Z,59.61
2022-09-26T08:41:04.122Z,59.81
2022-09-26T08:44:04.841Z,60.03
2022-09-26T08:46:50.093Z,60.24
2022-09-26T08:49:31.177Z,60.41
2022-09-26T08:52:08.186Z,60.59
2022-09-26T08:54:44.380Z,60.74
2022-09-26T08:57:45.122Z,60.86
2022-09-26T09:00:21.273Z,60.94
2022-09-26T09:03:02.400Z,61.14
2022-09-26T09:05:47.513Z,61.23
2022-09-26T09:08:34.657Z,61.43
2022-09-26T09:11:22.871Z,61.64
2022-09-26T09:14:15.468Z,61.79
2022-09-26T09:17:28.399Z,61.70
2022-09-26T09:20:12.618Z,61.95
2022-09-26T09:23:25.054Z,62.11
2022-09-26T09:29:49.357Z,62.19
2022-09-26T09:32:28.848Z,62.08
2022-09-26T09:34:59.268Z,62.23
2022-09-26T09:37:42.084Z,62.29
2022-09-26T09:40:29.724Z,62.22
2022-09-26T09:43:37.816Z,62.20
2022-09-26T09:46:26.112Z,62.22
2022-09-26T09:49:10.509Z,62.37
2022-09-26T09:52:28.194Z,62.39
2022-09-26T09:55:27.746Z,62.49
2022-09-26T09:58:59.453Z,62.69
2022-09-26T10:01:44.189Z,62.86
2022-09-26T10:04:57.056Z,63.04
2022-09-26T10:07:26.258Z,63.22
2022-09-26T10:09:55.537Z,63.40
2022-09-26T10:12:30.748Z,63.50
2022-09-26T10:15:13.633Z,63.70
2022-09-26T10:18:00.886Z,63.90
2022-09-26T10:20:43.335Z,64.09
2022-09-26T10:23:34.105Z,64.21
2022-09-26T10:26:10.961Z,64.45
2022-09-26T10:28:50.441Z,64.67
2022-09-26T10:31:42.813Z,64.77
2022-09-26T10:34:35.170Z,64.78
2022-09-26T10:37:33.139Z,64.80
2022-09-26T10:40:21.031Z,64.95
2022-09-26T10:42:50.480Z,65.08
2022-09-26T10:45:28.368Z,65.19
2022-09-26T10:47:58.379Z,65.35
2022-09-26T10:50:30.673Z,65.50
2022-09-26T10:53:09.410Z,65.60
2022-09-26T10:56:06.663Z,65.65
2022-09-26T10:58:49.065Z,65.85
2022-09-26T11:01:32.388Z,66.00
2022-09-26T11:04:40.040Z,66.17
2022-09-26T11:07:20.221Z,66.22
2022-09-26T11:09:49.717Z,66.29
2022-09-26T11:12:36.439Z,66.38
2022-09-26T11:15:16.321Z,66.41
2022-09-26T11:17:54.921Z,66.41
2022-09-26T11:20:56.525Z,66.46
2022-09-26T11:23:48.782Z,66.48
2022-09-26T11:27:05.423Z,66.52
2022-09-26T11:29:54.022Z,66.69
2022-09-26T11:32:43.220Z,66.77
2022-09-26T11:36:23.743Z,66.94
2022-09-26T11:38:58.881Z,67.04
2022-09-26T11:42:06.498Z,67.14
2022-09-26T11:45:11.997Z,67.33
2022-09-26T11:48:20.890Z,67.42
2022-09-26T11:51:20.854Z,67.51
2022-09-26T11:54:03.625Z,67.55
2022-09-26T11:57:05.129Z,67.51
2022-09-26T12:00:25.377Z,67.60
2022-09-26T12:03:34.442Z,67.76
2022-09-26T12:06:46.702Z,67.78
2022-09-26T12:09:40.274Z,67.80
2022-09-26T12:12:43.543Z,67.89
2022-09-26T12:15:24.572Z,67.94
2022-09-26T12:18:28.214Z,68.12
2022-09-26T12:21:31.102Z,68.33
2022-09-26T12:24:25.158Z,68.48
2022-09-26T12:27:11.846Z,68.65
2022-09-26T12:30:15.571Z,68.71
2022-09-26T12:33:28.886Z,68.83
2022-09-26T12:36:52.124Z,68.83
2022-09-26T12:39:37.850Z,68.91
2022-09-26T12:42:44.167Z,68.98
2022-09-26T12:46:18.283Z,69.01
2022-09-26T12:49:54.723Z,69.18
2022-09-26T12:53:02.580Z,69.43
2022-09-26T12:55:50.227Z,69.53
2022-09-26T12:58:52.923Z,69.62
2022-09-26T13:01:48.693Z,69.72
2022-09-26T13:04:49.958Z,69.81
2022-09-26T13:07:45.089Z,70.00
2022-09-26T13:10:39.174Z,70.04
2022-09-26T13:13:48.438Z,70.10
2022-09-26T13:17:20.319Z,70.21
2022-09-26T13:20:20.067Z,70.29
2022-09-26T13:23:18.764Z,70.38
2022-09-26T13:26:31.931Z,70.48
2022-09-26T13:29:29.971Z,70.70
2022-09-26T13:32:14.144Z,70.83
2022-09-26T13:34:54.470Z,70.92
2022-09-26T13:37:44.360Z,70.94
2022-09-26T13:40:47.550Z,71.06
2022-09-26T13:43:48.538Z,70.92
2022-09-26T13:46:41.190Z,70.82
2022-09-26T13:49:37.849Z,70.81
2022-09-26T13:52:43.498Z,70.87
2022-09-26T13:55:22.810Z,70.89
2022-09-26T13:58:07.732Z,71.04
2022-09-26T14:00:41.696Z,71.01
2022-09-26T14:03:20.209Z,71.02
2022-09-26T14:06:08.994Z,71.11
2022-09-26T14:09:17.095Z,71.20
2022-09-26T14:11:52.905Z,71.29
2022-09-26T14:14:39.036Z,71.31
2022-09-26T14:17:46.312Z,71.34
2022-09-26T14:20:32.827Z,71.38
2022-09-26T14:23:04.419Z,71.24
2022-09-26T14:25:58.126Z,71.17
2022-09-26T14:28:54.457Z,71.10
2022-09-26T14:31:27.070Z,71.09
2022-09-26T14:34:18.953Z,71.13
2022-09-26T14:36:51.021Z,71.17
2022-09-26T14:39:38.196Z,71.25
2022-09-26T14:42:38.481Z,71.38
2022-09-26T14:45:19.617Z,71.50
2022-09-26T14:48:05.855Z,71.57
2022-09-26T14:50:52.412Z,71.60
2022-09-26T14:53:52.312Z,71.62
2022-09-26T14:56:51.170Z,71.54
2022-09-26T14:59:41.680Z,71.46
2022-09-26T15:02:16.938Z,71.54
2022-09-26T15:04:53.044Z,71.70
2022-09-26T15:07:28.533Z,71.77
2022-09-26T15:10:28.222Z,71.75
2022-09-26T15:13:20.141Z,71.79
2022-09-26T15:16:22.385Z,71.78
2022-09-26T15:19:12.803Z,71.79
2022-09-26T15:21:52.678Z,71.74
2022-09-26T15:24:37.806Z,71.68
2022-09-26T15:27:18.418Z,71.53
2022-09-26T15:30:06.457Z,71.44
2022-09-26T15:32:35.915Z,71.27
2022-09-26T15:35:06.000Z,71.17
2022-09-26T15:37:37.590Z,71.11
2022-09-26T15:40:30.012Z,71.00
2022-09-26T15:43:11.051Z,70.90
2022-09-26T15:45:50.339Z,70.81
2022-09-26T15:48:22.666Z,70.78
2022-09-26T15:51:20.714Z,70.73
2022-09-26T15:54:06.957Z,70.60
2022-09-26T15:56:50.055Z,70.61
2022-09-26T15:59:41.759Z,70.51
2022-09-26T16:02:32.017Z,70.62
2022-09-26T16:05:02.289Z,70.17
2022-09-26T16:07:32.133Z,69.81
2022-09-26T16:10:04.645Z,69.61
2022-09-26T16:12:35.108Z,69.20
2022-09-26T16:15:21.020Z,68.84
2022-09-26T16:17:58.264Z,68.50
2022-09-26T16:20:30.454Z,68.33
2022-09-26T16:23:05.851Z,68.17
2022-09-26T16:25:54.527Z,68.03
2022-09-26T16:28:43.582Z,67.81
2022-09-26T16:31:30.008Z,67.65
2022-09-26T16:34:02.227Z,67.57
2022-09-26T16:36:36.242Z,67.39
2022-09-26T16:39:10.006Z,67.18
2022-09-26T16:42:03.240Z,67.08
2022-09-26T16:44:42.682Z,66.83
2022-09-26T16:47:33.383Z,66.50
2022-09-26T16:50:29.048Z,66.46
2022-09-26T16:52:59.471Z,66.14
2022-09-26T16:55:30.146Z,66.11
2022-09-26T16:58:04.013Z,66.01
2022-09-26T17:00:54.533Z,65.58
2022-09-26T17:03:34.196Z,65.46
2022-09-26T17:06:03.873Z,65.07
2022-09-26T17:08:35.102Z,65.07
2022-09-26T17:11:14.519Z,64.97
2022-09-26T17:13:45.002Z,64.79
2022-09-26T17:16:14.957Z,64.62
2022-09-26T17:18:45.681Z,64.25
2022-09-26T17:21:15.150Z,64.19
2022-09-26T17:23:44.331Z,64.03
2022-09-26T17:26:24.658Z,63.76
2022-09-26T17:28:55.243Z,63.41
2022-09-26T17:31:24.722Z,63.16
2022-09-26T17:33:55.844Z,63.05
2022-09-26T17:36:29.418Z,63.04
2022-09-26T17:39:03.444Z,62.61
2022-09-26T17:41:35.459Z,61.99
2022-09-26T17:44:04.906Z,61.85
2022-09-26T17:46:34.567Z,61.75
2022-09-26T17:49:07.790Z,61.55
2022-09-26T17:51:37.829Z,61.28
2022-09-26T17:54:08.602Z,61.36
2022-09-26T17:56:38.150Z,61.16
2022-09-26T17:59:23.680Z,60.94
2022-09-26T18:01:59.336Z,60.62
2022-09-26T18:04:30.852Z,60.45
2022-09-26T18:07:05.730Z,60.31
2022-09-26T18:09:37.430Z,59.89
2022-09-26T18:12:07.866Z,59.83
2022-09-26T18:14:37.380Z,59.42
2022-09-26T18:17:07.306Z,59.00
2022-09-26T18:19:37.785Z,58.29
2022-09-26T18:22:19.769Z,57.76
2022-09-26T18:24:53.063Z,57.20
2022-09-26T18:27:24.186Z,56.72
2022-09-26T18:29:53.675Z,56.42
2022-09-26T18:32:34.360Z,56.32
2022-09-26T18:35:04.169Z,56.00
2022-09-26T18:37:34.026Z,55.72
2022-09-26T18:40:04.590Z,55.43
2022-09-26T18:42:34.421Z,54.89
2022-09-26T18:45:06.950Z,54.70
2022-09-26T18:47:45.955Z,54.76
2022-09-26T18:50:42.314Z,54.61
2022-09-26T18:53:20.934Z,53.75
2022-09-26T18:56:08.967Z,53.15
2022-09-26T18:58:39.162Z,52.82
2022-09-26T19:01:28.672Z,52.75
2022-09-26T19:04:05.093Z,52.55
2022-09-26T19:06:42.827Z,52.55
2022-09-26T19:09:22.463Z,52.39
2022-09-26T19:11:51.729Z,52.30
2022-09-26T19:14:26.759Z,51.81
2022-09-26T19:16:57.457Z,51.64
2022-09-26T19:19:29.523Z,51.69
2022-09-26T19:22:03.046Z,51.52
2022-09-26T19:24:57.163Z,51.32
2022-09-26T19:27:39.756Z,51.16
2022-09-26T19:30:22.198Z,51.02
2022-09-26T19:32:54.449Z,50.46
2022-09-26T19:35:35.569Z,49.88
2022-09-26T19:38:27.583Z,49.57
2022-09-26T19:40:57.755Z,49.08
2022-09-26T19:43:27.173Z,48.94
2022-09-26T19:45:57.230Z,48.32
2022-09-26T19:48:26.869Z,48.12
2022-09-26T19:50:56.877Z,47.96
2022-09-26T19:53:26.332Z,47.61
2022-09-26T19:55:56.846Z,47.02
2022-09-26T19:58:31.389Z,46.08
2022-09-26T20:01:11.273Z,45.42
2022-09-26T20:03:44.827Z,45.33
2022-09-26T20:06:20.372Z,44.81
2022-09-26T20:08:51.321Z,43.68
2022-09-26T20:11:23.315Z,43.50
2022-09-26T20:14:11.307Z,42.37
2022-09-26T20:16:47.122Z,41.28
2022-09-26T20:19:26.024Z,41.94
2022-09-26T20:21:55.457Z,41.96
2022-09-26T20:24:24.629Z,42.01
2022-09-26T20:26:54.246Z,41.91
2022-09-26T20:29:24.159Z,41.84
2022-09-26T20:31:53.328Z,41.58
2022-09-26T20:34:22.915Z,41.04
2022-09-26T20:36:53.477Z,41.04
2022-09-26T20:39:28.464Z,41.07
2022-09-26T20:41:58.447Z,40.68
2022-09-26T20:44:34.768Z,40.15
2022-09-26T20:47:07.480Z,39.77
2022-09-26T20:49:55.648Z,38.71
2022-09-26T20:52:28.731Z,38.15
2022-09-26T20:54:59.595Z,38.10
2022-09-26T20:57:29.741Z,37.80
2022-09-26T20:59:59.503Z,37.33
2022-09-26T21:02:33.559Z,37.07
2022-09-26T21:05:04.358Z,36.45
2022-09-26T21:07:34.906Z,36.61
2022-09-26T21:10:10.661Z,36.65
2022-09-26T21:12:43.217Z,36.82
2022-09-26T21:15:14.179Z,37.15
2022-09-26T21:17:45.720Z,37.53
2022-09-26T21:20:25.241Z,37.07
2022-09-26T21:22:56.556Z,36.61
2022-09-26T21:25:30.173Z,36.46
2022-09-26T21:28:27.466Z,35.96
2022-09-26T21:31:01.765Z,35.80
2022-09-26T21:33:31.250Z,35.74
2022-09-26T21:36:00.632Z,36.00
2022-09-26T21:38:31.346Z,35.74
2022-09-26T21:41:03.073Z,35.59
2022-09-26T21:43:44.680Z,35.41
2022-09-26T21:46:14.005Z,35.77
2022-09-26T21:48:44.111Z,35.63
2022-09-26T21:51:14.208Z,35.36
2022-09-26T21:53:57.605Z,35.38
2022-09-26T21:56:34.386Z,35.39
2022-09-26T21:59:05.569Z,35.04
2022-09-26T22:01:34.761Z,34.89
2022-09-26T22:04:04.307Z,34.72
2022-09-26T22:06:35.779Z,34.37
2022-09-26T22:09:04.959Z,34.47
2022-09-26T22:11:34.182Z,34.42
2022-09-26T22:14:03.625Z,34.65
2022-09-26T22:16:32.971Z,34.66
2022-09-26T22:19:02.552Z,34.23
2022-09-26T22:21:32.253Z,34.37
2022-09-26T22:24:01.933Z,34.81
2022-09-26T22:26:31.254Z,34.60
2022-09-26T22:29:00.659Z,34.66
2022-09-26T22:31:29.810Z,34.87
2022-09-26T22:34:01.112Z,35.12
2022-09-26T22:36:30.383Z,34.81
2022-09-26T22:39:00.218Z,34.85
2022-09-26T22:41:29.688Z,35.10
2022-09-26T22:43:59.089Z,35.29
2022-09-26T22:46:28.550Z,34.62
2022-09-26T22:48:58.097Z,34.61
2022-09-26T22:51:27.464Z,34.67
2022-09-26T22:53:56.915Z,34.56
2022-09-26T22:56:26.422Z,34.53
2022-09-26T22:58:55.921Z,34.52
2022-09-26T23:01:29.479Z,34.84
2022-09-26T23:04:01.605Z,34.94
2022-09-26T23:06:32.729Z,35.19
2022-09-26T23:09:02.199Z,35.23
2022-09-26T23:11:32.153Z,35.28
2022-09-26T23:14:01.462Z,34.66
2022-09-26T23:16:30.914Z,35.06
2022-09-26T23:19:00.970Z,35.18
2022-09-26T23:21:30.642Z,35.36
2022-09-26T23:24:00.092Z,35.76
2022-09-26T23:26:33.090Z,35.59
2022-09-26T23:29:03.095Z,35.35
2022-09-26T23:31:32.645Z,35.03
2022-09-26T23:34:02.221Z,35.31
2022-09-26T23:36:31.566Z,35.85
2022-09-26T23:39:01.195Z,36.06
2022-09-26T23:41:31.440Z,35.85
2022-09-26T23:44:00.661Z,35.88
2022-09-26T23:46:29.833Z,36.31
2022-09-26T23:48:59.491Z,36.33
2022-09-26T23:51:29.005Z,36.13
2022-09-26T23:53:58.303Z,35.56
2022-09-26T23:56:27.477Z,35.03
2022-09-26T23:58:58.637Z,34.91
